createdAt,value
2018-05-03T00:03:48.675Z,66
2018-05-03T00:09:14.012Z,67
2018-05-03T00:14:40.258Z,67
2018-05-03T00:20:06.393Z,67
2018-05-03T00:25:32.628Z,67
2018-05-03T00:30:57.854Z,67
2018-05-03T00:36:23.134Z,67
2018-05-03T00:41:49.331Z,67
2018-05-03T00:47:15.564Z,67
2018-05-03T00:52:40.716Z,67
2018-05-03T00:58:05.906Z,68
2018-05-03T01:03:32.135Z,68
2018-05-03T01:08:57.293Z,67
2018-05-03T01:14:22.509Z,68
2018-05-03T01:25:13.906Z,67
2018-05-03T01:30:40.043Z,68
2018-05-03T01:36:06.295Z,68
2018-05-03T01:41:32.417Z,68
2018-05-03T01:46:58.567Z,68
2018-05-03T01:52:23.820Z,68
2018-05-03T01:57:48.851Z,68
2018-05-03T02:03:14.986Z,68
2018-05-03T02:08:41.112Z,68
2018-05-03T02:14:06.252Z,68
2018-05-03T02:19:32.567Z,68
2018-05-03T02:24:58.495Z,69
2018-05-03T02:30:23.581Z,69
2018-05-03T02:35:48.634Z,69
2018-05-03T02:41:14.728Z,69
2018-05-03T02:46:40.797Z,69
2018-05-03T02:52:06.938Z,69
2018-05-03T02:57:32.944Z,69
2018-05-03T03:02:57.989Z,69
2018-05-03T03:08:23.069Z,69
2018-05-03T03:13:49.146Z,69
2018-05-03T03:19:14.334Z,70
2018-05-03T03:24:39.174Z,70
2018-05-03T03:30:04.371Z,70
2018-05-03T03:35:30.307Z,70
2018-05-03T03:40:55.344Z,70
2018-05-03T03:46:21.488Z,70
2018-05-03T03:51:47.396Z,71
2018-05-03T03:57:13.422Z,71
2018-05-03T04:02:38.431Z,71
2018-05-03T04:08:04.565Z,72
2018-05-03T04:13:29.445Z,72
2018-05-03T04:18:54.661Z,72
2018-05-03T04:24:19.486Z,73
2018-05-03T04:29:45.488Z,73
2018-05-03T04:40:36.454Z,74
2018-05-03T04:46:01.432Z,74
2018-05-03T04:51:27.269Z,74
2018-05-03T04:56:52.239Z,74
2018-05-03T05:02:17.094Z,74
2018-05-03T05:07:42.952Z,74
2018-05-03T05:13:07.819Z,74
2018-05-03T05:18:32.695Z,74
2018-05-03T05:23:57.634Z,74
2018-05-03T05:29:23.419Z,75
2018-05-03T05:34:48.228Z,74
2018-05-03T05:40:12.995Z,74
2018-05-03T05:45:38.846Z,74
2018-05-03T05:51:03.778Z,74
2018-05-03T05:56:28.471Z,73
2018-05-03T06:01:54.882Z,74
2018-05-03T06:07:20.175Z,74
2018-05-03T06:12:44.766Z,73
2018-05-03T06:18:09.481Z,73
2018-05-03T06:23:35.275Z,73
2018-05-03T06:28:59.971Z,73
2018-05-03T06:34:25.962Z,73
2018-05-03T06:39:51.517Z,73
2018-05-03T06:45:17.310Z,73
2018-05-03T06:50:42.144Z,72
2018-05-03T06:56:07.847Z,72
2018-05-03T07:01:33.549Z,73
2018-05-03T17:16:27.762Z,46
2018-05-03T17:21:57.820Z,35
2018-05-03T17:27:27.792Z,34
2018-05-03T17:32:58.935Z,34
2018-05-03T17:38:30.169Z,34
2018-05-03T17:44:01.434Z,34
2018-05-03T17:49:32.576Z,34
2018-05-03T17:55:03.823Z,34
2018-05-03T18:00:35.320Z,34
2018-05-03T18:06:06.809Z,34
2018-05-03T18:11:37.348Z,34
2018-05-03T18:17:07.980Z,34
2018-05-03T18:22:38.210Z,35
2018-05-03T18:28:09.631Z,35
2018-05-03T18:33:40.822Z,35
2018-05-03T18:39:11.159Z,36
2018-05-03T18:44:41.295Z,36
2018-05-03T18:50:12.428Z,37
2018-05-03T18:55:42.618Z,37
2018-05-03T19:01:12.949Z,37
2018-05-03T19:06:42.969Z,37
2018-05-03T19:12:13.203Z,37
2018-05-03T19:17:44.348Z,38
2018-05-03T19:23:15.704Z,38
2018-05-03T19:28:45.683Z,38
2018-05-03T19:34:17.028Z,38
2018-05-03T19:39:48.110Z,38
2018-05-03T19:45:18.604Z,38
2018-05-03T19:50:49.428Z,38
2018-05-03T19:56:19.638Z,38
2018-05-03T20:01:50.772Z,38
2018-05-03T20:07:20.945Z,38
2018-05-03T20:12:51.103Z,39
2018-05-03T20:18:21.417Z,39
2018-05-03T20:23:52.479Z,39
2018-05-03T20:29:22.557Z,39
2018-05-03T20:34:52.688Z,39
2018-05-03T20:40:23.801Z,39
2018-05-03T20:45:53.941Z,39
2018-05-03T20:51:25.046Z,39
2018-05-03T20:56:55.189Z,39
2018-05-03T21:02:25.252Z,39
2018-05-03T21:07:56.368Z,39
2018-05-03T21:13:27.351Z,40
2018-05-03T21:18:58.535Z,40
2018-05-03T21:24:29.621Z,40
2018-05-03T21:29:59.604Z,40
2018-05-03T21:35:29.585Z,40
2018-05-03T21:41:00.682Z,40
2018-05-03T21:46:31.660Z,40
2018-05-03T21:52:01.672Z,40
2018-05-03T21:57:31.690Z,40
2018-05-03T22:03:01.723Z,40
2018-05-03T22:08:32.659Z,40
2018-05-03T22:14:03.819Z,40
2018-05-03T22:19:34.776Z,40
2018-05-03T22:25:05.727Z,40
2018-05-03T22:30:35.661Z,40
2018-05-03T22:36:06.600Z,40
2018-05-03T22:41:36.614Z,40
2018-05-03T22:47:06.610Z,40
2018-05-03T22:52:37.523Z,40
2018-05-03T22:58:07.503Z,40
2018-05-03T23:03:37.436Z,40
2018-05-03T23:09:08.437Z,40
2018-05-03T23:14:38.245Z,40
2018-05-03T23:20:09.777Z,40
2018-05-03T23:25:39.118Z,40
2018-05-03T23:31:09.415Z,40
2018-05-03T23:36:39.948Z,40
2018-05-03T23:42:10.940Z,40
2018-05-03T23:47:41.778Z,40
2018-05-03T23:53:11.784Z,40
2018-05-03T23:58:41.979Z,40
